createdAt,value
2022-08-02T00:05:22.655Z,1.45
2022-08-02T00:11:36.671Z,1.35
2022-08-02T00:17:48.852Z,1.95
2022-08-02T00:24:27.970Z,1.65
2022-08-02T00:30:21.889Z,1.62
2022-08-02T00:36:36.222Z,2.00
2022-08-02T00:42:47.461Z,1.77
2022-08-02T00:49:01.668Z,2.10
2022-08-02T00:55:17.508Z,2.87
2022-08-02T01:01:54.521Z,1.77
2022-08-02T01:07:57.383Z,1.67
2022-08-02T01:14:13.150Z,2.20
2022-08-02T01:20:31.009Z,2.42
2022-08-02T01:26:51.164Z,2.35
2022-08-02T01:33:04.993Z,2.05
2022-08-02T01:39:27.441Z,2.17
2022-08-02T01:52:01.875Z,1.75
2022-08-02T01:58:17.076Z,2.80
2022-08-02T02:04:31.636Z,2.03
2022-08-02T02:10:44.340Z,2.62
2022-08-02T02:16:56.702Z,1.98
2022-08-02T02:23:10.620Z,2.02
2022-08-02T02:29:26.292Z,2.60
2022-08-02T02:35:39.830Z,2.20
2022-08-02T02:41:55.228Z,2.02
2022-08-02T02:48:09.282Z,2.90
2022-08-02T02:54:29.802Z,2.87
2022-08-02T03:00:51.145Z,2.10
2022-08-02T03:07:05.274Z,2.25
2022-08-02T03:13:19.159Z,2.90
2022-08-02T03:19:33.255Z,2.67
2022-08-02T03:25:48.061Z,2.72
2022-08-02T03:32:00.476Z,2.05
2022-08-02T03:38:14.980Z,2.65
2022-08-02T03:44:27.476Z,2.12
2022-08-02T03:50:40.357Z,2.47
2022-08-02T03:56:54.462Z,2.55
2022-08-02T04:03:09.377Z,1.60
2022-08-02T04:09:25.397Z,2.37
2022-08-02T04:15:39.871Z,1.72
2022-08-02T04:21:52.091Z,1.87
2022-08-02T04:28:17.360Z,2.58
2022-08-02T04:34:19.870Z,1.62
2022-08-02T04:40:33.947Z,2.02
2022-08-02T04:46:47.458Z,2.62
2022-08-02T04:53:01.929Z,2.37
2022-08-02T04:59:15.069Z,2.58
2022-08-02T05:05:28.601Z,2.20
2022-08-02T05:11:41.169Z,1.95
2022-08-02T05:17:55.517Z,2.02
2022-08-02T05:24:08.670Z,2.08
2022-08-02T05:30:20.388Z,1.75
2022-08-02T05:36:34.459Z,2.55
2022-08-02T05:42:47.010Z,1.98
2022-08-02T05:48:58.630Z,1.92
2022-08-02T05:55:16.571Z,2.55
2022-08-02T06:01:31.414Z,1.65
2022-08-02T06:07:46.169Z,3.05
2022-08-02T06:14:00.702Z,2.40
2022-08-02T06:20:15.775Z,2.60
2022-08-02T06:26:29.728Z,2.62
2022-08-02T06:32:43.754Z,2.08
2022-08-02T06:39:00.865Z,2.37
2022-08-02T06:45:16.062Z,1.95
2022-08-02T06:51:30.501Z,2.07
2022-08-02T06:57:43.743Z,1.57
2022-08-02T07:03:58.101Z,2.22
2022-08-02T07:10:15.262Z,2.20
2022-08-02T07:16:29.786Z,2.30
2022-08-02T07:22:42.441Z,1.80
2022-08-02T07:28:57.561Z,2.47
2022-08-02T07:35:10.879Z,1.92
2022-08-02T07:41:24.646Z,1.67
2022-08-02T07:47:38.826Z,2.00
2022-08-02T07:54:02.546Z,1.90
2022-08-02T08:00:06.652Z,1.77
2022-08-02T08:06:28.605Z,2.00
2022-08-02T08:12:35.656Z,1.75
2022-08-02T08:18:50.240Z,2.27
2022-08-02T08:25:04.283Z,1.90
2022-08-02T08:31:16.599Z,2.22
2022-08-02T08:37:29.825Z,2.00
2022-08-02T08:43:43.818Z,1.80
2022-08-02T08:49:57.219Z,1.37
2022-08-02T08:56:15.918Z,1.65
2022-08-02T09:02:28.431Z,1.25
2022-08-02T09:08:42.700Z,1.27
2022-08-02T09:14:57.258Z,1.60
2022-08-02T09:21:13.477Z,1.70
2022-08-02T09:33:38.198Z,2.40
2022-08-02T09:39:58.373Z,1.85
2022-08-02T09:46:16.001Z,1.47
2022-08-02T09:52:37.038Z,1.57
2022-08-02T09:58:50.054Z,1.75
2022-08-02T10:11:16.410Z,1.20
2022-08-02T10:17:29.341Z,1.70
2022-08-02T10:23:42.638Z,1.72
2022-08-02T10:29:56.944Z,2.10
2022-08-02T10:36:11.443Z,1.65
2022-08-02T10:42:34.881Z,1.50
2022-08-02T10:49:42.159Z,1.60
2022-08-02T10:55:49.184Z,1.45
2022-08-02T11:02:05.350Z,1.65
2022-08-02T11:14:39.806Z,0.95
2022-08-02T11:20:52.329Z,2.00
2022-08-02T11:27:05.880Z,0.93
2022-08-02T11:33:18.385Z,1.40
2022-08-02T11:39:34.916Z,1.77
2022-08-02T11:45:49.146Z,1.30
2022-08-02T11:52:06.196Z,1.35
2022-08-02T11:58:20.340Z,1.10
2022-08-02T12:04:34.517Z,2.15
2022-08-02T12:10:47.249Z,1.80
2022-08-02T12:17:15.143Z,2.20
2022-08-02T12:23:29.185Z,1.35
2022-08-02T12:29:58.395Z,1.27
2022-08-02T12:35:56.650Z,1.40
2022-08-02T12:42:07.681Z,1.25
2022-08-02T12:48:18.399Z,1.50
2022-08-02T12:54:33.316Z,1.45
2022-08-02T13:00:46.393Z,0.90
2022-08-02T13:07:02.372Z,1.17
2022-08-02T13:13:14.980Z,1.30
2022-08-02T13:19:26.689Z,1.25
2022-08-02T13:25:42.113Z,1.75
2022-08-02T13:31:54.943Z,0.95
2022-08-02T13:38:07.239Z,1.05
2022-08-02T13:44:21.408Z,1.40
2022-08-02T13:50:35.879Z,1.20
2022-08-02T13:56:48.684Z,1.00
2022-08-02T14:03:02.030Z,1.45
2022-08-02T14:09:17.106Z,0.78
2022-08-02T14:15:32.512Z,0.93
2022-08-02T14:21:48.105Z,0.90
2022-08-02T14:28:02.545Z,1.07
2022-08-02T14:34:17.721Z,0.85
2022-08-02T14:40:31.235Z,0.83
2022-08-02T14:46:46.691Z,1.05
2022-08-02T14:53:01.034Z,0.95
2022-08-02T14:59:14.262Z,1.57
2022-08-02T15:05:28.383Z,0.98
2022-08-02T15:11:46.952Z,0.93
2022-08-02T15:17:56.143Z,1.37
2022-08-02T15:24:11.193Z,1.55
2022-08-02T15:30:25.534Z,0.82
2022-08-02T15:36:41.126Z,0.57
2022-08-02T15:42:55.472Z,0.40
2022-08-02T15:49:09.587Z,1.00
2022-08-02T15:55:24.001Z,0.70
2022-08-02T16:01:40.293Z,1.25
2022-08-02T16:07:53.648Z,1.05
2022-08-02T16:14:08.827Z,0.80
2022-08-02T16:20:24.748Z,0.60
2022-08-02T16:32:53.190Z,0.68
2022-08-02T16:39:06.053Z,0.60
2022-08-02T16:45:22.712Z,0.50
2022-08-02T16:51:33.630Z,0.95
2022-08-02T16:57:50.191Z,0.70
2022-08-02T17:04:04.613Z,0.50
2022-08-02T17:10:21.299Z,0.70
2022-08-02T17:16:33.913Z,0.23
2022-08-02T17:22:49.570Z,0.68
2022-08-02T17:29:16.232Z,0.82
2022-08-02T17:35:19.043Z,2.45
2022-08-02T17:41:37.800Z,0.45
2022-08-02T17:54:05.381Z,0.68
2022-08-02T18:00:26.865Z,0.70
2022-08-02T18:06:41.653Z,0.50
2022-08-02T18:12:56.164Z,0.75
2022-08-02T18:19:17.035Z,0.40
2022-08-02T18:31:40.228Z,0.50
2022-08-02T18:37:57.414Z,0.55
2022-08-02T18:44:15.682Z,0.50
2022-08-02T18:50:30.365Z,0.68
2022-08-02T19:03:00.658Z,0.78
2022-08-02T19:15:28.359Z,0.60
2022-08-02T19:22:17.741Z,0.60
2022-08-02T19:27:55.009Z,0.50
2022-08-02T19:34:08.041Z,0.60
2022-08-02T19:40:18.789Z,0.53
2022-08-02T19:46:33.535Z,0.80
2022-08-02T19:52:49.005Z,0.77
2022-08-02T19:59:13.325Z,0.60
2022-08-02T20:05:24.068Z,0.80
2022-08-02T20:11:34.649Z,0.85
2022-08-02T20:17:47.649Z,0.75
2022-08-02T20:24:01.012Z,0.80
2022-08-02T20:30:17.200Z,0.98
2022-08-02T20:36:31.049Z,1.10
2022-08-02T20:42:45.209Z,0.70
2022-08-02T20:49:05.552Z,0.90
2022-08-02T20:55:19.594Z,1.05
2022-08-02T21:01:37.169Z,0.80
2022-08-02T21:07:47.775Z,1.20
2022-08-02T21:14:08.595Z,0.95
2022-08-02T21:20:27.213Z,0.90
2022-08-02T21:26:35.087Z,0.62
2022-08-02T21:32:49.256Z,0.88
2022-08-02T21:39:04.875Z,0.90
2022-08-02T21:45:20.729Z,0.65
2022-08-02T21:51:37.186Z,0.88
2022-08-02T21:57:51.441Z,0.80
2022-08-02T22:04:03.754Z,1.00
2022-08-02T22:10:20.479Z,0.75
2022-08-02T22:16:36.114Z,0.75
2022-08-02T22:22:50.184Z,1.40
2022-08-02T22:29:05.224Z,1.30
2022-08-02T22:35:20.945Z,0.60
2022-08-02T22:42:02.051Z,0.88
2022-08-02T22:54:02.090Z,0.68
2022-08-02T22:58:50.939Z,0.62
2022-08-02T22:58:58.175Z,0.40
2022-08-02T23:00:21.800Z,1.00
2022-08-02T23:06:34.287Z,0.90
2022-08-02T23:12:47.714Z,1.12
2022-08-02T23:19:17.087Z,1.07
2022-08-02T23:25:29.661Z,1.15
2022-08-02T23:31:44.113Z,1.20
2022-08-02T23:38:00.782Z,0.80
2022-08-02T23:44:15.515Z,0.70
2022-08-02T23:50:30.322Z,0.50
2022-08-02T23:56:44.697Z,0.90
